Terminal Aerodrome Forecast
Issued by NWS

Home | Current Version | Previous Version | Text Only | Print | Product List | Glossary On
Versions: 1 2 3 4 5 6 7 8 9 10 11 12 13
000
FTUS45 KREV 190100 AAA
TAFCXP
TAF AMD
KCXP 190142Z 1902/1924 27009G17KT P6SM VCSH SCT060 BKN090
     FM190400 32007KT P6SM BKN060
     FM190600 VRB03KT P6SM SCT060
     FM192000 25010G18KT P6SM SCT100=

USA.gov is the U.S. government's official web portal to all federal, state and local government web resources and services.